createdAt,value
2022-10-04T00:00:11.071Z,4.16
2022-10-04T00:01:12.062Z,2.92
2022-10-04T00:02:19.065Z,4.14
2022-10-04T00:03:19.179Z,3.82
2022-10-04T00:04:21.065Z,3.62
2022-10-04T00:05:16.065Z,4.22
2022-10-04T00:06:16.063Z,4.06
2022-10-04T00:07:19.065Z,4.28
2022-10-04T00:08:21.070Z,3.60
2022-10-04T00:09:15.064Z,3.44
2022-10-04T00:10:21.063Z,3.32
2022-10-04T00:11:19.060Z,3.96
2022-10-04T00:12:19.067Z,5.24
2022-10-04T00:13:21.078Z,4.26
2022-10-04T00:14:17.067Z,3.22
2022-10-04T00:15:18.062Z,4.46
2022-10-04T00:16:19.142Z,4.76
2022-10-04T00:17:13.093Z,3.46
2022-10-04T00:18:23.066Z,3.40
2022-10-04T00:19:19.067Z,4.30
2022-10-04T00:20:21.065Z,3.54
2022-10-04T00:21:11.057Z,3.52
2022-10-04T00:22:13.061Z,3.32
2022-10-04T00:23:19.060Z,3.12
2022-10-04T00:24:21.057Z,3.74
2022-10-04T00:25:16.054Z,3.18
2022-10-04T00:26:20.061Z,4.22
2022-10-04T00:27:19.059Z,3.54
2022-10-04T00:28:16.104Z,3.26
2022-10-04T00:29:19.056Z,3.94
2022-10-04T00:30:19.059Z,3.84
2022-10-04T00:31:20.130Z,3.94
2022-10-04T00:32:19.060Z,3.34
2022-10-04T00:33:11.057Z,4.06
2022-10-04T00:34:19.062Z,3.98
2022-10-04T00:35:19.061Z,2.84
2022-10-04T00:36:19.061Z,3.20
2022-10-04T00:37:15.060Z,3.60
2022-10-04T00:38:14.059Z,3.32
2022-10-04T00:39:15.059Z,3.22
2022-10-04T00:40:17.060Z,3.30
2022-10-04T00:41:11.081Z,3.84
2022-10-04T00:42:19.059Z,3.56
2022-10-04T00:43:17.067Z,3.26
2022-10-04T00:44:16.060Z,3.14
2022-10-04T00:45:18.064Z,3.20
2022-10-04T00:46:19.166Z,4.38
2022-10-04T00:47:19.064Z,3.40
2022-10-04T00:48:19.062Z,3.70
2022-10-04T00:49:12.062Z,3.02
2022-10-04T00:50:20.057Z,3.16
2022-10-04T00:51:21.062Z,3.04
2022-10-04T00:52:19.069Z,3.86
2022-10-04T00:53:18.063Z,2.92
2022-10-04T00:54:19.058Z,3.10
2022-10-04T00:55:15.059Z,2.86
2022-10-04T00:56:15.064Z,2.86
2022-10-04T00:57:18.064Z,2.88
2022-10-04T00:58:19.059Z,3.06
2022-10-04T00:59:20.058Z,3.16
2022-10-04T01:00:14.064Z,2.64
2022-10-04T01:01:11.116Z,3.00
2022-10-04T01:02:21.176Z,2.78
2022-10-04T01:03:18.068Z,3.50
2022-10-04T01:04:19.066Z,3.84
2022-10-04T01:05:16.075Z,3.40
2022-10-04T01:06:11.063Z,2.38
2022-10-04T01:07:12.060Z,2.92
2022-10-04T01:08:21.066Z,2.62
2022-10-04T01:09:11.071Z,2.90
2022-10-04T01:10:19.065Z,3.72
2022-10-04T01:11:19.063Z,2.52
2022-10-04T01:12:19.063Z,3.18
2022-10-04T01:13:18.067Z,2.64
2022-10-04T01:14:19.066Z,3.16
2022-10-04T01:15:17.065Z,3.12
2022-10-04T01:16:19.117Z,3.66
2022-10-04T01:17:11.066Z,2.90
2022-10-04T01:18:21.067Z,3.50
2022-10-04T01:19:19.069Z,3.04
2022-10-04T01:20:19.064Z,3.24
2022-10-04T01:21:19.074Z,3.92
2022-10-04T01:22:18.068Z,3.62
2022-10-04T01:23:11.069Z,4.02
2022-10-04T01:24:17.057Z,3.88
2022-10-04T01:25:11.058Z,4.70
2022-10-04T01:26:19.072Z,4.98
2022-10-04T01:27:19.059Z,5.36
2022-10-04T01:28:11.153Z,5.10
2022-10-04T01:29:18.061Z,5.40
2022-10-04T01:30:15.062Z,4.92
2022-10-04T01:31:11.078Z,5.58
2022-10-04T01:32:11.060Z,4.54
2022-10-04T01:33:12.064Z,3.92
2022-10-04T01:34:12.069Z,4.28
2022-10-04T01:35:12.061Z,4.82
2022-10-04T01:36:11.056Z,4.20
2022-10-04T01:37:11.061Z,5.34
2022-10-04T01:38:11.070Z,4.62
2022-10-04T01:39:11.061Z,4.36
2022-10-04T01:40:11.064Z,4.00
2022-10-04T01:41:11.063Z,3.52
2022-10-04T01:42:19.060Z,3.92
2022-10-04T01:43:12.063Z,4.14
2022-10-04T01:44:15.080Z,3.30
2022-10-04T01:45:21.060Z,3.38
2022-10-04T01:46:14.145Z,3.56
2022-10-04T01:47:15.060Z,4.72
2022-10-04T01:48:16.062Z,3.82
2022-10-04T01:49:13.069Z,5.12
2022-10-04T01:50:21.065Z,4.24
2022-10-04T01:51:19.065Z,4.24
2022-10-04T01:52:19.082Z,4.24
2022-10-04T01:53:21.063Z,3.96
2022-10-04T01:54:17.060Z,3.80
2022-10-04T01:55:18.059Z,2.70
2022-10-04T01:56:18.063Z,3.48
2022-10-04T01:57:16.071Z,3.06
2022-10-04T01:58:19.064Z,3.66
2022-10-04T01:59:16.066Z,3.04
2022-10-04T02:00:12.066Z,2.86
2022-10-04T02:01:17.129Z,3.22
2022-10-04T02:02:20.065Z,3.56
2022-10-04T02:03:18.062Z,3.22
2022-10-04T02:04:22.089Z,3.36
2022-10-04T02:05:13.064Z,3.20
2022-10-04T02:06:11.073Z,2.82
2022-10-04T02:07:15.065Z,3.28
2022-10-04T02:08:14.063Z,3.40
2022-10-04T02:09:15.066Z,2.74
2022-10-04T02:10:18.063Z,3.22
2022-10-04T02:11:15.061Z,2.88
2022-10-04T02:12:14.065Z,2.94
2022-10-04T02:13:17.073Z,2.78
2022-10-04T02:14:17.067Z,2.72
2022-10-04T02:15:11.063Z,2.86
2022-10-04T02:16:11.168Z,3.24
2022-10-04T02:17:11.077Z,3.28
2022-10-04T02:18:16.066Z,3.86
2022-10-04T02:19:11.061Z,4.44
2022-10-04T02:20:17.067Z,3.42
2022-10-04T02:21:11.058Z,3.36
2022-10-04T02:22:11.058Z,3.68
2022-10-04T02:23:11.059Z,3.62
2022-10-04T02:24:11.065Z,3.62
2022-10-04T02:25:11.058Z,3.02
2022-10-04T02:26:11.061Z,3.74
2022-10-04T02:27:11.067Z,3.86
2022-10-04T02:28:13.115Z,4.56
2022-10-04T02:29:11.054Z,4.44
2022-10-04T02:30:11.065Z,3.76
2022-10-04T02:31:15.116Z,3.56
2022-10-04T02:32:15.058Z,4.00
2022-10-04T02:33:11.061Z,3.78
2022-10-04T02:34:11.068Z,3.56
2022-10-04T02:35:11.058Z,3.88
2022-10-04T02:36:12.060Z,3.58
2022-10-04T02:37:11.068Z,3.84
2022-10-04T02:38:22.060Z,3.46
2022-10-04T02:39:19.059Z,4.14
2022-10-04T02:40:13.062Z,3.42
2022-10-04T02:41:21.069Z,3.20
2022-10-04T02:42:18.064Z,4.08
2022-10-04T02:43:21.058Z,4.24
2022-10-04T02:44:17.060Z,3.22
2022-10-04T02:45:19.060Z,3.84
2022-10-04T02:46:17.090Z,3.48
2022-10-04T02:47:18.061Z,4.40
2022-10-04T02:48:21.062Z,3.54
2022-10-04T02:49:21.062Z,3.82
2022-10-04T02:50:19.064Z,3.88
2022-10-04T02:51:17.079Z,3.70
2022-10-04T02:52:19.061Z,3.62
2022-10-04T02:53:19.059Z,4.06
2022-10-04T02:54:21.061Z,4.04
2022-10-04T02:55:19.064Z,4.32
2022-10-04T02:56:11.070Z,4.14
2022-10-04T02:57:20.061Z,4.46
2022-10-04T02:58:14.063Z,3.36
2022-10-04T02:59:15.062Z,4.00
2022-10-04T03:00:19.071Z,3.54
2022-10-04T03:01:19.099Z,3.82
2022-10-04T03:02:26.918Z,3.98
2022-10-04T03:03:19.107Z,3.70
2022-10-04T03:04:12.063Z,3.60
2022-10-04T03:05:14.071Z,3.82
2022-10-04T03:06:14.061Z,4.70
2022-10-04T03:07:11.061Z,4.28
2022-10-04T03:08:11.066Z,4.54
2022-10-04T03:09:11.064Z,4.40
2022-10-04T03:10:13.062Z,4.40
2022-10-04T03:11:11.067Z,4.20
2022-10-04T03:12:12.065Z,3.94
2022-10-04T03:13:11.063Z,4.56
2022-10-04T03:14:18.067Z,4.12
2022-10-04T03:15:12.072Z,5.18
2022-10-04T03:16:11.159Z,4.26
2022-10-04T03:17:11.067Z,4.08
2022-10-04T03:18:11.072Z,4.18
2022-10-04T03:19:11.069Z,4.52
2022-10-04T03:20:11.063Z,3.72
2022-10-04T03:21:12.061Z,4.06
2022-10-04T03:22:11.069Z,4.36
2022-10-04T03:23:11.058Z,4.60
2022-10-04T03:24:15.060Z,4.28
2022-10-04T03:25:15.060Z,4.00
2022-10-04T03:26:19.059Z,4.44
2022-10-04T03:27:14.062Z,4.20
2022-10-04T03:28:11.150Z,5.42
2022-10-04T03:29:12.062Z,4.88
2022-10-04T03:30:14.057Z,5.08
2022-10-04T03:31:11.122Z,4.34
2022-10-04T03:32:16.065Z,5.08
2022-10-04T03:33:15.063Z,5.02
2022-10-04T03:34:21.058Z,5.28
2022-10-04T03:35:19.061Z,5.28
2022-10-04T03:36:14.059Z,5.38
2022-10-04T03:37:14.062Z,4.84
2022-10-04T03:38:11.075Z,4.66
2022-10-04T03:39:11.064Z,4.94
2022-10-04T03:40:11.066Z,5.56
2022-10-04T03:41:12.062Z,5.04
2022-10-04T03:42:14.066Z,5.28
2022-10-04T03:43:11.063Z,4.94
2022-10-04T03:44:15.060Z,5.00
2022-10-04T03:45:14.063Z,4.30
2022-10-04T03:46:11.133Z,4.18
2022-10-04T03:47:13.069Z,4.94
2022-10-04T03:48:12.070Z,4.62
2022-10-04T03:49:11.077Z,4.62
2022-10-04T03:50:19.069Z,4.48
2022-10-04T03:51:16.065Z,4.54
2022-10-04T03:52:18.074Z,3.92
2022-10-04T03:53:17.058Z,4.42
2022-10-04T03:54:15.065Z,4.10
2022-10-04T03:55:12.070Z,4.72
2022-10-04T03:56:15.061Z,4.44
2022-10-04T03:57:14.062Z,4.80
2022-10-04T03:58:13.071Z,3.98
2022-10-04T03:59:13.061Z,5.00
2022-10-04T04:00:14.064Z,4.14
2022-10-04T04:01:19.149Z,4.46
2022-10-04T04:02:18.110Z,5.00
2022-10-04T04:03:15.065Z,4.18
2022-10-04T04:04:21.063Z,4.58
2022-10-04T04:05:19.066Z,3.50
2022-10-04T04:06:18.066Z,3.52
2022-10-04T04:07:18.065Z,3.74
2022-10-04T04:08:17.063Z,3.30
2022-10-04T04:09:15.059Z,3.40
2022-10-04T04:10:19.065Z,3.52
2022-10-04T04:11:20.067Z,4.24
2022-10-04T04:12:20.065Z,3.24
2022-10-04T04:13:21.064Z,3.62
2022-10-04T04:14:18.061Z,3.28
2022-10-04T04:15:13.065Z,3.36
2022-10-04T04:16:11.110Z,3.14
2022-10-04T04:17:18.065Z,3.88
2022-10-04T04:18:19.067Z,3.24
2022-10-04T04:19:15.067Z,2.90
2022-10-04T04:20:19.066Z,2.70
2022-10-04T04:21:13.058Z,4.26
2022-10-04T04:22:16.058Z,3.32
2022-10-04T04:23:19.065Z,3.42
2022-10-04T04:24:19.061Z,3.52
2022-10-04T04:25:14.056Z,3.34
2022-10-04T04:26:19.057Z,3.86
2022-10-04T04:27:11.066Z,2.86
2022-10-04T04:28:21.113Z,3.64
2022-10-04T04:29:17.057Z,3.16
2022-10-04T04:30:15.062Z,2.96
2022-10-04T04:31:20.146Z,2.78
2022-10-04T04:32:19.060Z,3.66
2022-10-04T04:33:21.130Z,4.54
2022-10-04T04:34:19.060Z,2.96
2022-10-04T04:35:22.061Z,3.04
2022-10-04T04:36:12.059Z,3.18
2022-10-04T04:37:12.059Z,3.06
2022-10-04T04:38:17.056Z,2.78
2022-10-04T04:39:19.060Z,3.28
2022-10-04T04:40:20.066Z,2.94
2022-10-04T04:41:12.080Z,2.62
2022-10-04T04:42:17.058Z,2.52
2022-10-04T04:43:17.063Z,2.88
2022-10-04T04:44:16.063Z,3.30
2022-10-04T04:45:18.075Z,2.58
2022-10-04T04:46:26.090Z,2.94
2022-10-04T04:47:18.233Z,2.88
2022-10-04T04:48:14.064Z,3.82
2022-10-04T04:49:12.062Z,2.32
2022-10-04T04:50:16.063Z,2.70
2022-10-04T04:51:19.060Z,2.74
2022-10-04T04:52:16.062Z,2.68
2022-10-04T04:53:19.070Z,2.42
2022-10-04T04:54:11.063Z,2.72
2022-10-04T04:55:19.068Z,2.94
2022-10-04T04:56:15.173Z,2.54
2022-10-04T04:57:16.075Z,2.40
2022-10-04T04:58:15.063Z,3.70
2022-10-04T04:59:11.061Z,2.98
2022-10-04T05:00:16.096Z,2.72
2022-10-04T05:01:19.150Z,2.92
2022-10-04T05:02:19.103Z,2.12
2022-10-04T05:03:18.061Z,2.30
2022-10-04T05:04:18.075Z,2.20
2022-10-04T05:05:15.065Z,1.92
2022-10-04T05:06:19.073Z,2.10
2022-10-04T05:07:17.065Z,2.64
2022-10-04T05:08:18.068Z,2.58
2022-10-04T05:09:21.065Z,2.16
2022-10-04T05:10:19.066Z,2.08
2022-10-04T05:11:15.072Z,1.60
2022-10-04T05:12:20.062Z,2.02
2022-10-04T05:13:11.062Z,1.74
2022-10-04T05:14:12.064Z,2.40
2022-10-04T05:15:11.289Z,2.56
2022-10-04T05:16:18.107Z,2.22
2022-10-04T05:17:19.068Z,2.54
2022-10-04T05:18:19.067Z,2.06
2022-10-04T05:19:19.075Z,2.36
2022-10-04T05:20:14.066Z,2.32
2022-10-04T05:21:20.064Z,3.08
2022-10-04T05:22:13.059Z,2.18
2022-10-04T05:23:13.064Z,2.14
2022-10-04T05:24:19.058Z,2.48
2022-10-04T05:25:19.055Z,2.14
2022-10-04T05:26:14.059Z,2.64
2022-10-04T05:27:21.061Z,2.68
2022-10-04T05:28:12.085Z,2.94
2022-10-04T05:29:16.056Z,3.00
2022-10-04T05:30:19.069Z,2.74
2022-10-04T05:31:21.097Z,2.36
2022-10-04T05:32:19.063Z,2.50
2022-10-04T05:33:12.060Z,3.08
2022-10-04T05:34:19.060Z,2.86
2022-10-04T05:35:20.070Z,2.84
2022-10-04T05:36:23.060Z,2.78
2022-10-04T05:37:19.061Z,2.36
2022-10-04T05:38:21.068Z,3.14
2022-10-04T05:39:19.060Z,1.88
2022-10-04T05:40:21.069Z,3.16
2022-10-04T05:41:19.061Z,2.96
2022-10-04T05:42:19.059Z,2.96
2022-10-04T05:43:19.058Z,3.62
2022-10-04T05:44:19.060Z,2.88
2022-10-04T05:45:18.067Z,2.62
2022-10-04T05:46:21.128Z,3.34
2022-10-04T05:47:12.062Z,3.62
2022-10-04T05:48:13.062Z,3.76
2022-10-04T05:49:18.851Z,3.04
2022-10-04T05:50:20.111Z,3.84
2022-10-04T05:51:19.063Z,3.64
2022-10-04T05:52:16.060Z,2.62
2022-10-04T05:53:19.062Z,2.64
2022-10-04T05:54:11.070Z,4.04
2022-10-04T05:55:21.061Z,2.44
2022-10-04T05:56:19.062Z,3.78
2022-10-04T05:57:19.063Z,3.22
2022-10-04T05:58:21.064Z,3.16
2022-10-04T05:59:19.076Z,3.44
2022-10-04T06:00:19.064Z,2.48
2022-10-04T06:01:19.125Z,2.78
2022-10-04T06:02:19.103Z,2.32
2022-10-04T06:03:19.065Z,3.06
2022-10-04T06:04:19.064Z,2.78
2022-10-04T06:05:18.064Z,2.94
2022-10-04T06:06:21.067Z,3.06
2022-10-04T06:07:21.066Z,3.56
2022-10-04T06:08:20.073Z,3.04
2022-10-04T06:09:21.066Z,3.66
2022-10-04T06:10:21.066Z,3.06
2022-10-04T06:11:19.063Z,3.08
2022-10-04T06:12:17.062Z,3.02
2022-10-04T06:13:19.063Z,3.20
2022-10-04T06:14:21.075Z,3.22
2022-10-04T06:15:19.067Z,3.88
2022-10-04T06:16:21.117Z,3.38
2022-10-04T06:17:19.065Z,3.12
2022-10-04T06:18:21.072Z,2.24
2022-10-04T06:19:21.064Z,3.16
2022-10-04T06:20:19.074Z,3.40
2022-10-04T06:21:21.060Z,3.50
2022-10-04T06:22:20.059Z,3.24
2022-10-04T06:23:16.055Z,2.70
2022-10-04T06:24:16.060Z,2.90
2022-10-04T06:25:17.065Z,2.66
2022-10-04T06:26:20.057Z,2.94
2022-10-04T06:27:19.055Z,2.54
2022-10-04T06:28:21.135Z,3.12
2022-10-04T06:29:17.058Z,2.74
2022-10-04T06:30:18.065Z,2.84
2022-10-04T06:31:21.143Z,8.46
2022-10-04T06:32:19.058Z,6.70
2022-10-04T06:33:21.060Z,3.76
2022-10-04T06:34:19.061Z,31.76
2022-10-04T06:35:21.062Z,9.02
2022-10-04T06:36:19.061Z,18.50
2022-10-04T06:37:19.058Z,5.18
2022-10-04T06:38:19.055Z,4.50
2022-10-04T06:39:21.058Z,9.92
2022-10-04T06:40:19.069Z,3.96
2022-10-04T06:41:21.061Z,3.04
2022-10-04T06:42:21.075Z,4.56
2022-10-04T06:43:21.061Z,3.94
2022-10-04T06:44:21.060Z,3.24
2022-10-04T06:45:19.061Z,8.78
2022-10-04T06:46:21.156Z,3.48
2022-10-04T06:47:19.062Z,2.96
2022-10-04T06:48:19.059Z,3.24
2022-10-04T06:49:19.060Z,3.72
2022-10-04T06:50:21.062Z,3.74
2022-10-04T06:51:19.068Z,3.26
2022-10-04T06:52:19.062Z,4.32
2022-10-04T06:53:19.060Z,4.16
2022-10-04T06:54:19.058Z,3.80
2022-10-04T06:55:19.062Z,3.50
2022-10-04T06:56:19.073Z,3.84
2022-10-04T06:57:19.063Z,4.02
2022-10-04T06:58:22.066Z,4.44
2022-10-04T06:59:21.061Z,3.32
2022-10-04T07:00:21.063Z,4.80
2022-10-04T07:01:19.171Z,3.34
2022-10-04T07:02:19.185Z,4.36
2022-10-04T07:03:21.060Z,3.50
2022-10-04T07:04:21.063Z,3.34
2022-10-04T07:05:19.061Z,3.66
2022-10-04T07:06:11.064Z,2.92
2022-10-04T07:07:23.064Z,8.42
2022-10-04T07:08:22.065Z,8.42
2022-10-04T07:09:19.062Z,7.68
2022-10-04T07:10:21.078Z,3.06
2022-10-04T07:11:19.065Z,4.04
2022-10-04T07:12:14.080Z,4.66
2022-10-04T07:13:21.155Z,4.62
2022-10-04T07:14:19.064Z,4.84
2022-10-04T07:15:19.065Z,11.32
2022-10-04T07:16:21.159Z,4.64
2022-10-04T07:17:23.066Z,3.24
2022-10-04T07:18:20.066Z,4.94
2022-10-04T07:19:19.085Z,9.92
2022-10-04T07:20:19.065Z,3.50
2022-10-04T07:21:13.057Z,3.16
2022-10-04T07:22:19.059Z,10.70
2022-10-04T07:23:19.057Z,5.96
2022-10-04T07:24:12.060Z,6.38
2022-10-04T07:25:19.071Z,9.66
2022-10-04T07:26:21.058Z,14.28
2022-10-04T07:27:13.057Z,6.84
2022-10-04T07:28:21.142Z,8.68
2022-10-04T07:29:23.061Z,17.74
2022-10-04T07:30:15.062Z,13.28
2022-10-04T07:31:19.116Z,10.48
2022-10-04T07:32:18.057Z,10.14
2022-10-04T07:33:14.059Z,4.94
2022-10-04T07:34:22.058Z,7.08
2022-10-04T07:35:21.088Z,11.90
2022-10-04T07:36:17.636Z,17.64
2022-10-04T07:37:14.024Z,10.58
2022-10-04T07:38:21.063Z,8.96
2022-10-04T07:39:19.070Z,7.22
2022-10-04T07:40:19.068Z,5.78
2022-10-04T07:41:21.069Z,7.04
2022-10-04T07:42:19.079Z,8.90
2022-10-04T07:43:20.067Z,6.74
2022-10-04T07:44:19.068Z,4.34
2022-10-04T07:45:19.066Z,4.40
2022-10-04T07:46:19.134Z,6.92
2022-10-04T07:47:19.063Z,4.98
2022-10-04T07:48:16.070Z,5.60
2022-10-04T07:49:19.067Z,5.42
2022-10-04T07:50:19.086Z,3.14
2022-10-04T07:51:23.077Z,5.92
2022-10-04T07:52:19.065Z,3.84
2022-10-04T07:53:16.064Z,3.70
2022-10-04T07:54:21.063Z,3.34
2022-10-04T07:55:19.080Z,2.80
2022-10-04T07:56:18.090Z,3.78
2022-10-04T07:57:19.060Z,4.18
2022-10-04T07:58:21.070Z,4.38
2022-10-04T07:59:19.068Z,2.34
2022-10-04T08:00:18.086Z,4.32
2022-10-04T08:01:21.079Z,5.22
2022-10-04T08:02:21.181Z,4.50
2022-10-04T08:03:19.119Z,2.16
2022-10-04T08:04:19.066Z,3.04
2022-10-04T08:05:21.066Z,1.86
2022-10-04T08:06:21.071Z,2.92
2022-10-04T08:07:19.065Z,5.12
2022-10-04T08:08:19.101Z,3.36
2022-10-04T08:09:21.085Z,2.60
2022-10-04T08:10:19.062Z,3.00
2022-10-04T08:11:19.076Z,2.46
2022-10-04T08:12:17.071Z,1.66
2022-10-04T08:13:19.063Z,2.36
2022-10-04T08:14:19.065Z,1.74
2022-10-04T08:15:19.071Z,2.84
2022-10-04T08:16:19.117Z,2.48
2022-10-04T08:17:19.063Z,3.64
2022-10-04T08:18:19.061Z,1.80
2022-10-04T08:19:21.064Z,2.48
2022-10-04T08:20:19.077Z,1.68
2022-10-04T08:21:15.060Z,1.56
2022-10-04T08:22:19.060Z,2.36
2022-10-04T08:23:21.054Z,2.74
2022-10-04T08:24:19.059Z,1.46
2022-10-04T08:25:19.066Z,2.14
2022-10-04T08:26:19.059Z,2.06
2022-10-04T08:27:19.056Z,2.72
2022-10-04T08:28:23.146Z,1.24
2022-10-04T08:29:25.064Z,1.78
2022-10-04T08:30:17.068Z,3.06
2022-10-04T08:31:19.092Z,2.38
2022-10-04T08:32:19.060Z,1.74
2022-10-04T08:33:19.056Z,1.46
2022-10-04T08:34:21.060Z,1.62
2022-10-04T08:35:19.066Z,2.56
2022-10-04T08:36:21.085Z,2.80
2022-10-04T08:37:21.060Z,1.82
2022-10-04T08:38:21.058Z,2.04
2022-10-04T08:39:19.062Z,2.32
2022-10-04T08:40:19.131Z,2.58
2022-10-04T08:41:21.082Z,2.18
2022-10-04T08:42:19.062Z,1.18
2022-10-04T08:43:19.059Z,1.38
2022-10-04T08:44:19.061Z,1.40
2022-10-04T08:45:21.074Z,1.48
2022-10-04T08:46:19.144Z,1.20
2022-10-04T08:47:21.983Z,1.32
2022-10-04T08:48:19.057Z,0.98
2022-10-04T08:49:19.063Z,1.44
2022-10-04T08:50:19.071Z,2.06
2022-10-04T08:51:21.074Z,1.66
2022-10-04T08:52:19.062Z,1.24
2022-10-04T08:53:19.059Z,1.34
2022-10-04T08:54:19.063Z,1.10
2022-10-04T08:55:19.070Z,1.42
2022-10-04T08:56:19.063Z,5.22
2022-10-04T08:57:23.068Z,2.90
2022-10-04T08:58:16.080Z,1.48
2022-10-04T08:59:19.061Z,0.96
2022-10-04T09:00:19.131Z,2.96
2022-10-04T09:01:19.172Z,2.14
2022-10-04T09:02:19.100Z,2.20
2022-10-04T09:03:22.918Z,1.80
2022-10-04T09:04:21.846Z,2.24
2022-10-04T09:05:21.076Z,1.64
2022-10-04T09:06:21.101Z,1.66
2022-10-04T09:07:19.063Z,2.26
2022-10-04T09:08:19.067Z,2.36
2022-10-04T09:09:19.067Z,1.44
2022-10-04T09:10:21.946Z,3.48
2022-10-04T09:11:21.085Z,1.70
2022-10-04T09:12:21.062Z,3.54
2022-10-04T09:13:19.065Z,1.22
2022-10-04T09:14:21.076Z,1.00
2022-10-04T09:15:17.074Z,1.02
2022-10-04T09:16:19.117Z,0.94
2022-10-04T09:17:22.327Z,1.86
2022-10-04T09:18:19.091Z,1.16
2022-10-04T09:19:23.071Z,1.28
2022-10-04T09:20:37.689Z,0.98
2022-10-04T09:21:18.081Z,0.84
2022-10-04T09:22:18.057Z,0.70
2022-10-04T09:23:21.063Z,1.14
2022-10-04T09:24:21.072Z,1.00
2022-10-04T09:25:19.060Z,1.04
2022-10-04T09:26:19.061Z,0.90
2022-10-04T09:27:37.087Z,0.66
2022-10-04T09:28:21.156Z,0.98
2022-10-04T09:29:21.061Z,0.68
2022-10-04T09:30:21.061Z,1.00
2022-10-04T09:31:19.179Z,0.88
2022-10-04T09:32:23.127Z,1.06
2022-10-04T09:33:21.079Z,0.72
2022-10-04T09:34:19.063Z,0.66
2022-10-04T09:35:21.065Z,1.18
2022-10-04T09:36:21.062Z,1.22
2022-10-04T09:37:21.078Z,1.12
2022-10-04T09:38:19.072Z,1.26
2022-10-04T09:39:29.856Z,1.06
2022-10-04T09:40:21.074Z,1.78
2022-10-04T09:41:19.062Z,1.66
2022-10-04T09:42:19.059Z,1.38
2022-10-04T09:43:19.091Z,0.90
2022-10-04T09:44:21.081Z,1.48
2022-10-04T09:45:21.060Z,0.70
2022-10-04T09:46:20.134Z,1.08
2022-10-04T09:47:19.062Z,0.58
2022-10-04T09:48:19.092Z,1.32
2022-10-04T09:49:19.062Z,0.80
2022-10-04T09:50:19.063Z,1.24
2022-10-04T09:51:21.088Z,1.06
2022-10-04T09:52:19.072Z,1.32
2022-10-04T09:53:19.065Z,0.74
2022-10-04T09:54:19.067Z,1.00
2022-10-04T09:55:19.064Z,0.86
2022-10-04T09:56:19.062Z,1.62
2022-10-04T09:57:21.062Z,0.86
2022-10-04T09:58:19.074Z,0.66
2022-10-04T09:59:19.065Z,0.74
2022-10-04T10:00:19.061Z,0.68
2022-10-04T10:01:19.098Z,0.68
2022-10-04T10:02:19.115Z,1.12
2022-10-04T10:03:21.231Z,1.16
2022-10-04T10:04:19.065Z,1.00
2022-10-04T10:05:19.068Z,1.80
2022-10-04T10:06:19.066Z,1.24
2022-10-04T10:07:19.072Z,0.82
2022-10-04T10:08:19.064Z,0.98
2022-10-04T10:09:23.062Z,1.14
2022-10-04T10:10:23.061Z,0.94
2022-10-04T10:11:25.064Z,0.82
2022-10-04T10:12:25.075Z,1.02
2022-10-04T10:13:23.079Z,0.80
2022-10-04T10:14:19.081Z,0.76
2022-10-04T10:15:19.065Z,1.00
2022-10-04T10:16:21.147Z,1.04
2022-10-04T10:17:21.067Z,1.10
2022-10-04T10:18:21.089Z,0.86
2022-10-04T10:19:19.074Z,1.52
2022-10-04T10:20:19.068Z,1.12
2022-10-04T10:21:19.057Z,0.72
2022-10-04T10:22:19.058Z,0.76
2022-10-04T10:23:19.064Z,0.70
2022-10-04T10:24:19.059Z,0.48
2022-10-04T10:25:21.058Z,0.58
2022-10-04T10:26:19.058Z,1.08
2022-10-04T10:27:19.061Z,0.74
2022-10-04T10:28:19.110Z,0.40
2022-10-04T10:29:23.099Z,0.72
2022-10-04T10:30:21.077Z,0.42
2022-10-04T10:31:20.150Z,0.48
2022-10-04T10:32:22.059Z,0.60
2022-10-04T10:33:19.061Z,0.74
2022-10-04T10:34:19.060Z,0.46
2022-10-04T10:35:19.062Z,0.36
2022-10-04T10:36:19.059Z,0.42
2022-10-04T10:37:15.057Z,0.90
2022-10-04T10:38:19.058Z,0.40
2022-10-04T10:39:22.069Z,0.56
2022-10-04T10:40:19.060Z,0.52
2022-10-04T10:41:19.059Z,0.40
2022-10-04T10:42:22.061Z,0.30
2022-10-04T10:43:19.061Z,0.64
2022-10-04T10:44:21.078Z,0.44
2022-10-04T10:45:23.063Z,0.54
2022-10-04T10:46:19.183Z,0.78
2022-10-04T10:47:22.070Z,0.58
2022-10-04T10:48:21.061Z,0.64
2022-10-04T10:49:22.133Z,0.48
2022-10-04T10:50:19.070Z,0.54
2022-10-04T10:51:18.079Z,0.72
2022-10-04T10:52:19.061Z,0.38
2022-10-04T10:53:22.063Z,0.48
2022-10-04T10:54:19.066Z,0.32
2022-10-04T10:55:19.064Z,0.52
2022-10-04T10:56:20.060Z,0.30
2022-10-04T10:57:19.058Z,0.28
2022-10-04T10:58:19.065Z,0.30
2022-10-04T10:59:19.069Z,1.04
2022-10-04T11:00:19.065Z,0.30
2022-10-04T11:01:22.114Z,0.40
2022-10-04T11:02:19.131Z,0.52
2022-10-04T11:03:23.280Z,0.86
2022-10-04T11:04:21.621Z,0.54
2022-10-04T11:05:19.074Z,1.00
2022-10-04T11:06:21.062Z,0.40
2022-10-04T11:07:19.063Z,0.38
2022-10-04T11:08:19.063Z,0.98
2022-10-04T11:09:19.071Z,0.30
2022-10-04T11:10:19.069Z,0.46
2022-10-04T11:11:22.064Z,0.48
2022-10-04T11:12:19.065Z,0.34
2022-10-04T11:13:19.064Z,0.48
2022-10-04T11:14:19.073Z,0.58
2022-10-04T11:15:19.065Z,0.50
2022-10-04T11:16:19.099Z,0.94
2022-10-04T11:17:19.069Z,0.38
2022-10-04T11:18:19.068Z,0.68
2022-10-04T11:19:19.072Z,0.82
2022-10-04T11:20:22.065Z,0.32
2022-10-04T11:21:19.057Z,0.24
2022-10-04T11:22:21.058Z,0.82
2022-10-04T11:23:24.060Z,0.36
2022-10-04T11:24:21.071Z,0.68
2022-10-04T11:25:22.059Z,0.52
2022-10-04T11:26:19.056Z,0.86
2022-10-04T11:27:20.053Z,0.48
2022-10-04T11:28:21.104Z,0.28
2022-10-04T11:29:20.066Z,0.20
2022-10-04T11:30:22.059Z,0.46
2022-10-04T11:31:22.093Z,0.50
2022-10-04T11:32:19.059Z,0.48
2022-10-04T11:33:19.061Z,0.48
2022-10-04T11:34:23.069Z,0.68
2022-10-04T11:35:19.072Z,0.56
2022-10-04T11:36:20.060Z,0.74
2022-10-04T11:37:19.058Z,0.62
2022-10-04T11:38:19.062Z,0.58
2022-10-04T11:39:19.060Z,0.40
2022-10-04T11:40:19.068Z,0.68
2022-10-04T11:41:18.064Z,0.20
2022-10-04T11:42:23.059Z,0.34
2022-10-04T11:43:21.056Z,0.32
2022-10-04T11:44:19.063Z,0.34
2022-10-04T11:45:19.073Z,0.30
2022-10-04T11:46:18.171Z,0.70
2022-10-04T11:47:19.059Z,0.52
2022-10-04T11:48:23.063Z,0.82
2022-10-04T11:49:19.063Z,0.74
2022-10-04T11:50:20.071Z,0.32
2022-10-04T11:51:19.062Z,0.50
2022-10-04T11:52:19.061Z,0.30
2022-10-04T11:53:19.058Z,0.34
2022-10-04T11:54:19.061Z,0.28
2022-10-04T11:55:19.074Z,0.40
2022-10-04T11:56:21.065Z,1.24
2022-10-04T11:57:19.071Z,0.64
2022-10-04T11:58:22.064Z,0.38
2022-10-04T11:59:19.066Z,0.40
2022-10-04T12:00:17.072Z,1.04
2022-10-04T12:01:24.065Z,0.60
2022-10-04T12:02:19.063Z,0.66
2022-10-04T12:03:24.087Z,0.64
2022-10-04T12:04:19.080Z,1.08
2022-10-04T12:05:19.071Z,0.52
2022-10-04T12:06:22.066Z,1.38
2022-10-04T12:07:20.063Z,0.66
2022-10-04T12:08:22.061Z,0.68
2022-10-04T12:09:22.066Z,0.86
2022-10-04T12:10:22.067Z,0.42
2022-10-04T12:11:21.075Z,0.24
2022-10-04T12:12:23.066Z,0.42
2022-10-04T12:13:22.065Z,0.44
2022-10-04T12:14:22.064Z,1.08
2022-10-04T12:15:20.071Z,0.38
2022-10-04T12:16:22.144Z,0.48
2022-10-04T12:17:20.079Z,0.32
2022-10-04T12:18:19.068Z,0.50
2022-10-04T12:19:19.064Z,0.92
2022-10-04T12:20:19.071Z,1.30
2022-10-04T12:21:22.060Z,0.86
2022-10-04T12:22:19.059Z,0.40
2022-10-04T12:23:19.070Z,0.58
2022-10-04T12:24:15.058Z,0.84
2022-10-04T12:25:24.057Z,0.36
2022-10-04T12:26:22.054Z,0.54
2022-10-04T12:27:19.062Z,0.40
2022-10-04T12:28:23.133Z,0.80
2022-10-04T12:29:22.061Z,0.40
2022-10-04T12:30:19.061Z,0.44
2022-10-04T12:31:19.102Z,1.40
2022-10-04T12:32:17.061Z,0.38
2022-10-04T12:33:21.066Z,0.64
2022-10-04T12:34:22.061Z,0.36
2022-10-04T12:35:19.062Z,0.42
2022-10-04T12:36:19.061Z,0.56
2022-10-04T12:37:22.065Z,0.60
2022-10-04T12:38:20.064Z,0.50
2022-10-04T12:39:19.065Z,0.40
2022-10-04T12:40:19.060Z,0.32
2022-10-04T12:41:22.060Z,0.84
2022-10-04T12:42:22.062Z,0.56
2022-10-04T12:43:19.066Z,0.40
2022-10-04T12:44:19.062Z,0.58
2022-10-04T12:45:19.064Z,0.94
2022-10-04T12:46:22.129Z,0.40
2022-10-04T12:47:22.063Z,0.40
2022-10-04T12:48:19.063Z,0.60
2022-10-04T12:49:19.073Z,0.72
2022-10-04T12:50:19.062Z,0.68
2022-10-04T12:51:19.060Z,0.48
2022-10-04T12:52:18.067Z,0.48
2022-10-04T12:53:19.066Z,0.70
2022-10-04T12:54:18.078Z,0.88
2022-10-04T12:55:19.063Z,0.52
2022-10-04T12:56:19.076Z,0.30
2022-10-04T12:57:19.062Z,0.78
2022-10-04T12:58:19.076Z,0.58
2022-10-04T12:59:22.065Z,1.10
2022-10-04T13:00:16.076Z,1.22
2022-10-04T13:01:22.132Z,27.78
2022-10-04T13:02:19.163Z,4.04
2022-10-04T13:03:19.083Z,3.86
2022-10-04T13:04:19.067Z,4.06
2022-10-04T13:05:19.064Z,2.34
2022-10-04T13:06:19.065Z,2.04
2022-10-04T13:07:22.070Z,2.14
2022-10-04T13:08:19.078Z,1.54
2022-10-04T13:09:17.067Z,2.58
2022-10-04T13:10:26.496Z,4.72
2022-10-04T13:11:24.103Z,0.70
2022-10-04T13:12:22.070Z,0.98
2022-10-04T13:13:23.075Z,0.98
2022-10-04T13:14:19.068Z,1.38
2022-10-04T13:15:19.064Z,1.16
2022-10-04T13:17:30.925Z,1.02
2022-10-04T13:18:21.072Z,0.94
2022-10-04T13:19:19.070Z,1.46